sensor_id;sensor_type;location;lat;lon;timestamp;temperature;humidity
44111;DHT22;29774;52.664;5.074;2023-07-13T00:01:28;25.00;57.50
44111;DHT22;29774;52.664;5.074;2023-07-13T00:03:56;25.00;57.60
44111;DHT22;29774;52.664;5.074;2023-07-13T00:06:22;24.90;57.60
44111;DHT22;29774;52.664;5.074;2023-07-13T00:08:47;24.80;57.80
44111;DHT22;29774;52.664;5.074;2023-07-13T00:11:15;24.90;57.70
44111;DHT22;29774;52.664;5.074;2023-07-13T00:13:41;24.70;58.00
44111;DHT22;29774;52.664;5.074;2023-07-13T00:16:08;24.80;57.90
44111;DHT22;29774;52.664;5.074;2023-07-13T00:18:34;24.70;58.10
44111;DHT22;29774;52.664;5.074;2023-07-13T00:21:00;24.70;58.30
44111;DHT22;29774;52.664;5.074;2023-07-13T00:23:31;24.70;58.10
44111;DHT22;29774;52.664;5.074;2023-07-13T00:25:59;24.50;58.60
44111;DHT22;29774;52.664;5.074;2023-07-13T00:28:25;24.50;58.60
44111;DHT22;29774;52.664;5.074;2023-07-13T00:30:50;24.60;58.40
44111;DHT22;29774;52.664;5.074;2023-07-13T00:33:16;24.60;58.40
44111;DHT22;29774;52.664;5.074;2023-07-13T00:35:42;24.60;58.30
44111;DHT22;29774;52.664;5.074;2023-07-13T00:38:09;24.60;58.30
44111;DHT22;29774;52.664;5.074;2023-07-13T00:40:35;24.40;58.70
44111;DHT22;29774;52.664;5.074;2023-07-13T00:43:00;24.50;58.50
44111;DHT22;29774;52.664;5.074;2023-07-13T00:47:52;24.20;59.00
44111;DHT22;29774;52.664;5.074;2023-07-13T00:50:19;24.30;59.00
44111;DHT22;29774;52.664;5.074;2023-07-13T00:52:49;24.30;58.80
44111;DHT22;29774;52.664;5.074;2023-07-13T00:55:16;24.30;59.00
44111;DHT22;29774;52.664;5.074;2023-07-13T00:57:43;24.30;58.90
44111;DHT22;29774;52.664;5.074;2023-07-13T01:00:10;24.10;59.50
44111;DHT22;29774;52.664;5.074;2023-07-13T01:02:38;24.20;59.30
44111;DHT22;29774;52.664;5.074;2023-07-13T01:05:13;24.20;59.10
44111;DHT22;29774;52.664;5.074;2023-07-13T01:07:43;24.20;59.40
44111;DHT22;29774;52.664;5.074;2023-07-13T01:10:10;24.10;59.50
44111;DHT22;29774;52.664;5.074;2023-07-13T01:12:35;24.20;59.20
44111;DHT22;29774;52.664;5.074;2023-07-13T01:15:03;24.20;59.20
44111;DHT22;29774;52.664;5.074;2023-07-13T01:17:30;24.00;59.60
44111;DHT22;29774;52.664;5.074;2023-07-13T01:19:57;24.00;59.90
44111;DHT22;29774;52.664;5.074;2023-07-13T01:22:23;23.80;59.50
44111;DHT22;29774;52.664;5.074;2023-07-13T01:24:51;23.80;60.20
44111;DHT22;29774;52.664;5.074;2023-07-13T01:27:20;23.90;60.00
44111;DHT22;29774;52.664;5.074;2023-07-13T01:29:46;24.00;59.60
44111;DHT22;29774;52.664;5.074;2023-07-13T01:32:16;24.00;59.60
44111;DHT22;29774;52.664;5.074;2023-07-13T01:34:41;23.90;59.80
44111;DHT22;29774;52.664;5.074;2023-07-13T01:37:09;23.90;59.80
44111;DHT22;29774;52.664;5.074;2023-07-13T01:39:35;24.00;59.80
44111;DHT22;29774;52.664;5.074;2023-07-13T01:42:00;24.00;59.90
44111;DHT22;29774;52.664;5.074;2023-07-13T01:44:26;24.00;59.70
44111;DHT22;29774;52.664;5.074;2023-07-13T01:46:52;24.00;59.50
44111;DHT22;29774;52.664;5.074;2023-07-13T01:49:18;23.80;60.10
44111;DHT22;29774;52.664;5.074;2023-07-13T01:51:43;23.70;60.40
44111;DHT22;29774;52.664;5.074;2023-07-13T01:54:09;23.40;61.30
44111;DHT22;29774;52.664;5.074;2023-07-13T01:56:34;23.30;61.50
44111;DHT22;29774;52.664;5.074;2023-07-13T01:59:00;23.40;61.50
44111;DHT22;29774;52.664;5.074;2023-07-13T02:01:26;23.60;60.70
44111;DHT22;29774;52.664;5.074;2023-07-13T02:03:51;23.70;60.30
44111;DHT22;29774;52.664;5.074;2023-07-13T02:06:17;23.80;60.20
44111;DHT22;29774;52.664;5.074;2023-07-13T02:08:42;23.70;60.30
44111;DHT22;29774;52.664;5.074;2023-07-13T02:11:08;23.70;60.50
44111;DHT22;29774;52.664;5.074;2023-07-13T02:13:34;23.60;60.40
44111;DHT22;29774;52.664;5.074;2023-07-13T02:16:00;23.70;60.10
44111;DHT22;29774;52.664;5.074;2023-07-13T02:18:26;23.70;60.00
44111;DHT22;29774;52.664;5.074;2023-07-13T02:20:51;23.70;60.20
44111;DHT22;29774;52.664;5.074;2023-07-13T02:23:17;23.80;60.00
44111;DHT22;29774;52.664;5.074;2023-07-13T02:25:42;23.90;59.80
44111;DHT22;29774;52.664;5.074;2023-07-13T02:28:08;24.00;59.50
44111;DHT22;29774;52.664;5.074;2023-07-13T02:30:34;23.90;59.50
44111;DHT22;29774;52.664;5.074;2023-07-13T02:33:00;23.90;59.50
44111;DHT22;29774;52.664;5.074;2023-07-13T02:35:25;24.00;59.30
44111;DHT22;29774;52.664;5.074;2023-07-13T02:37:51;23.90;59.50
44111;DHT22;29774;52.664;5.074;2023-07-13T02:40:17;24.00;59.40
44111;DHT22;29774;52.664;5.074;2023-07-13T02:42:42;23.90;59.50
44111;DHT22;29774;52.664;5.074;2023-07-13T02:45:09;24.00;59.40
44111;DHT22;29774;52.664;5.074;2023-07-13T02:47:35;24.10;59.10
44111;DHT22;29774;52.664;5.074;2023-07-13T02:50:02;24.20;58.80
44111;DHT22;29774;52.664;5.074;2023-07-13T02:52:28;24.20;58.70
44111;DHT22;29774;52.664;5.074;2023-07-13T02:54:53;24.10;58.70
44111;DHT22;29774;52.664;5.074;2023-07-13T02:57:19;24.10;58.90
44111;DHT22;29774;52.664;5.074;2023-07-13T02:59:44;24.10;59.10
44111;DHT22;29774;52.664;5.074;2023-07-13T03:02:10;24.20;58.80
44111;DHT22;29774;52.664;5.074;2023-07-13T03:04:36;24.20;58.60
44111;DHT22;29774;52.664;5.074;2023-07-13T03:07:03;24.20;58.60
44111;DHT22;29774;52.664;5.074;2023-07-13T03:09:29;24.20;58.50
44111;DHT22;29774;52.664;5.074;2023-07-13T03:11:55;24.10;58.90
44111;DHT22;29774;52.664;5.074;2023-07-13T03:14:22;24.00;58.90
44111;DHT22;29774;52.664;5.074;2023-07-13T03:16:48;24.00;59.30
44111;DHT22;29774;52.664;5.074;2023-07-13T03:19:13;24.00;59.10
44111;DHT22;29774;52.664;5.074;2023-07-13T03:21:39;23.70;59.80
44111;DHT22;29774;52.664;5.074;2023-07-13T03:24:05;23.90;59.40
44111;DHT22;29774;52.664;5.074;2023-07-13T03:26:31;24.00;58.70
44111;DHT22;29774;52.664;5.074;2023-07-13T03:28:57;23.80;59.60
44111;DHT22;29774;52.664;5.074;2023-07-13T03:31:26;24.00;59.20
44111;DHT22;29774;52.664;5.074;2023-07-13T03:33:54;24.10;58.80
44111;DHT22;29774;52.664;5.074;2023-07-13T03:36:23;24.00;58.90
44111;DHT22;29774;52.664;5.074;2023-07-13T03:38:50;24.00;59.00
44111;DHT22;29774;52.664;5.074;2023-07-13T03:41:16;24.10;58.90
44111;DHT22;29774;52.664;5.074;2023-07-13T03:43:42;24.10;58.80
44111;DHT22;29774;52.664;5.074;2023-07-13T03:46:08;23.90;59.00
44111;DHT22;29774;52.664;5.074;2023-07-13T03:48:34;23.90;59.10
44111;DHT22;29774;52.664;5.074;2023-07-13T03:51:00;24.00;59.00
44111;DHT22;29774;52.664;5.074;2023-07-13T03:53:26;24.00;58.90
44111;DHT22;29774;52.664;5.074;2023-07-13T03:55:51;24.10;58.80
44111;DHT22;29774;52.664;5.074;2023-07-13T03:58:32;24.10;58.70
44111;DHT22;29774;52.664;5.074;2023-07-13T04:00:58;24.10;58.70
44111;DHT22;29774;52.664;5.074;2023-07-13T04:03:24;24.20;58.40
44111;DHT22;29774;52.664;5.074;2023-07-13T04:05:50;24.20;58.50
44111;DHT22;29774;52.664;5.074;2023-07-13T04:08:16;24.10;58.90
44111;DHT22;29774;52.664;5.074;2023-07-13T04:10:43;24.20;58.60
44111;DHT22;29774;52.664;5.074;2023-07-13T04:13:08;24.20;58.50
44111;DHT22;29774;52.664;5.074;2023-07-13T04:15:34;24.10;58.50
44111;DHT22;29774;52.664;5.074;2023-07-13T04:18:00;24.10;58.80
44111;DHT22;29774;52.664;5.074;2023-07-13T04:20:26;24.20;58.50
44111;DHT22;29774;52.664;5.074;2023-07-13T04:22:52;24.20;58.40
44111;DHT22;29774;52.664;5.074;2023-07-13T04:25:19;24.10;58.50
44111;DHT22;29774;52.664;5.074;2023-07-13T04:27:45;24.00;58.90
44111;DHT22;29774;52.664;5.074;2023-07-13T04:30:11;24.10;58.70
44111;DHT22;29774;52.664;5.074;2023-07-13T04:32:37;24.10;58.60
44111;DHT22;29774;52.664;5.074;2023-07-13T04:35:02;24.00;59.00
44111;DHT22;29774;52.664;5.074;2023-07-13T04:37:28;24.00;58.90
44111;DHT22;29774;52.664;5.074;2023-07-13T04:39:54;24.10;58.80
44111;DHT22;29774;52.664;5.074;2023-07-13T04:42:20;24.00;58.80
44111;DHT22;29774;52.664;5.074;2023-07-13T04:44:49;24.00;59.00
44111;DHT22;29774;52.664;5.074;2023-07-13T04:47:15;24.10;58.70
44111;DHT22;29774;52.664;5.074;2023-07-13T04:49:40;23.80;59.50
44111;DHT22;29774;52.664;5.074;2023-07-13T04:52:07;23.80;59.30
44111;DHT22;29774;52.664;5.074;2023-07-13T04:54:33;23.80;59.30
44111;DHT22;29774;52.664;5.074;2023-07-13T04:56:59;24.00;59.10
44111;DHT22;29774;52.664;5.074;2023-07-13T04:59:25;24.10;58.80
44111;DHT22;29774;52.664;5.074;2023-07-13T05:01:51;24.10;58.70
44111;DHT22;29774;52.664;5.074;2023-07-13T05:04:17;24.10;58.80
44111;DHT22;29774;52.664;5.074;2023-07-13T05:06:42;24.00;58.90
44111;DHT22;29774;52.664;5.074;2023-07-13T05:09:08;24.10;58.70
44111;DHT22;29774;52.664;5.074;2023-07-13T05:11:34;24.20;58.50
44111;DHT22;29774;52.664;5.074;2023-07-13T05:14:00;24.20;58.30
44111;DHT22;29774;52.664;5.074;2023-07-13T05:16:27;24.10;58.50
44111;DHT22;29774;52.664;5.074;2023-07-13T05:18:53;24.10;58.50
44111;DHT22;29774;52.664;5.074;2023-07-13T05:21:18;24.20;58.40
44111;DHT22;29774;52.664;5.074;2023-07-13T05:23:44;24.10;58.70
44111;DHT22;29774;52.664;5.074;2023-07-13T05:26:09;24.20;58.50
44111;DHT22;29774;52.664;5.074;2023-07-13T05:28:35;24.20;58.40
44111;DHT22;29774;52.664;5.074;2023-07-13T05:31:01;24.10;58.70
44111;DHT22;29774;52.664;5.074;2023-07-13T05:33:27;24.20;58.60
44111;DHT22;29774;52.664;5.074;2023-07-13T05:35:53;24.20;58.40
44111;DHT22;29774;52.664;5.074;2023-07-13T05:38:19;24.30;58.30
44111;DHT22;29774;52.664;5.074;2023-07-13T05:40:45;24.20;58.50
44111;DHT22;29774;52.664;5.074;2023-07-13T05:43:11;24.20;58.30
44111;DHT22;29774;52.664;5.074;2023-07-13T05:45:37;24.20;58.40
44111;DHT22;29774;52.664;5.074;2023-07-13T05:48:02;24.20;58.50
44111;DHT22;29774;52.664;5.074;2023-07-13T05:50:28;24.20;58.40
44111;DHT22;29774;52.664;5.074;2023-07-13T05:52:54;24.10;58.50
44111;DHT22;29774;52.664;5.074;2023-07-13T05:55:20;24.20;58.60
44111;DHT22;29774;52.664;5.074;2023-07-13T05:57:45;24.20;58.60
44111;DHT22;29774;52.664;5.074;2023-07-13T06:00:11;24.10;58.70
44111;DHT22;29774;52.664;5.074;2023-07-13T06:02:37;24.20;58.80
44111;DHT22;29774;52.664;5.074;2023-07-13T06:05:03;24.10;58.90
44111;DHT22;29774;52.664;5.074;2023-07-13T06:07:29;24.10;59.00
44111;DHT22;29774;52.664;5.074;2023-07-13T06:09:54;24.20;58.80
44111;DHT22;29774;52.664;5.074;2023-07-13T06:12:20;24.30;58.70
44111;DHT22;29774;52.664;5.074;2023-07-13T06:14:45;24.30;58.50
44111;DHT22;29774;52.664;5.074;2023-07-13T06:17:11;24.30;58.40
44111;DHT22;29774;52.664;5.074;2023-07-13T06:19:37;24.30;58.30
44111;DHT22;29774;52.664;5.074;2023-07-13T06:22:02;24.30;58.70
44111;DHT22;29774;52.664;5.074;2023-07-13T06:24:28;24.20;58.90
44111;DHT22;29774;52.664;5.074;2023-07-13T06:26:54;24.10;59.00
44111;DHT22;29774;52.664;5.074;2023-07-13T06:29:19;24.20;58.80
44111;DHT22;29774;52.664;5.074;2023-07-13T06:31:45;24.20;58.90
44111;DHT22;29774;52.664;5.074;2023-07-13T06:34:11;24.20;58.60
44111;DHT22;29774;52.664;5.074;2023-07-13T06:36:36;24.20;58.60
44111;DHT22;29774;52.664;5.074;2023-07-13T06:39:04;24.30;58.50
44111;DHT22;29774;52.664;5.074;2023-07-13T06:41:29;24.30;58.70
44111;DHT22;29774;52.664;5.074;2023-07-13T06:43:56;24.30;58.40
44111;DHT22;29774;52.664;5.074;2023-07-13T06:46:22;24.40;58.30
44111;DHT22;29774;52.664;5.074;2023-07-13T06:48:48;24.30;58.90
44111;DHT22;29774;52.664;5.074;2023-07-13T06:51:14;24.40;58.40
44111;DHT22;29774;52.664;5.074;2023-07-13T06:53:40;24.40;58.30
44111;DHT22;29774;52.664;5.074;2023-07-13T06:56:05;24.40;58.30
44111;DHT22;29774;52.664;5.074;2023-07-13T06:58:33;24.30;58.50
44111;DHT22;29774;52.664;5.074;2023-07-13T07:00:59;24.40;58.70
44111;DHT22;29774;52.664;5.074;2023-07-13T07:03:24;24.40;58.40
44111;DHT22;29774;52.664;5.074;2023-07-13T07:05:50;24.40;58.40
44111;DHT22;29774;52.664;5.074;2023-07-13T07:08:15;24.40;58.20
44111;DHT22;29774;52.664;5.074;2023-07-13T07:10:42;24.40;58.50
44111;DHT22;29774;52.664;5.074;2023-07-13T07:13:07;24.40;58.40
44111;DHT22;29774;52.664;5.074;2023-07-13T07:15:34;24.30;58.60
44111;DHT22;29774;52.664;5.074;2023-07-13T07:18:00;24.30;58.80
44111;DHT22;29774;52.664;5.074;2023-07-13T07:20:26;24.30;58.60
44111;DHT22;29774;52.664;5.074;2023-07-13T07:22:52;24.20;58.70
44111;DHT22;29774;52.664;5.074;2023-07-13T07:25:18;24.30;58.60
44111;DHT22;29774;52.664;5.074;2023-07-13T07:27:44;24.30;58.50
44111;DHT22;29774;52.664;5.074;2023-07-13T07:30:10;24.30;58.50
44111;DHT22;29774;52.664;5.074;2023-07-13T07:32:36;24.30;58.70
44111;DHT22;29774;52.664;5.074;2023-07-13T07:35:02;24.30;58.70
44111;DHT22;29774;52.664;5.074;2023-07-13T07:37:28;24.30;58.60
44111;DHT22;29774;52.664;5.074;2023-07-13T07:39:53;24.30;58.50
44111;DHT22;29774;52.664;5.074;2023-07-13T07:42:19;24.30;58.50
44111;DHT22;29774;52.664;5.074;2023-07-13T07:44:44;24.20;58.60
44111;DHT22;29774;52.664;5.074;2023-07-13T07:47:10;24.30;58.60
44111;DHT22;29774;52.664;5.074;2023-07-13T07:49:37;24.30;58.60
44111;DHT22;29774;52.664;5.074;2023-07-13T07:52:04;24.30;58.60
44111;DHT22;29774;52.664;5.074;2023-07-13T07:54:29;24.30;58.50
44111;DHT22;29774;52.664;5.074;2023-07-13T07:56:55;24.30;58.50
44111;DHT22;29774;52.664;5.074;2023-07-13T07:59:20;24.40;58.40
44111;DHT22;29774;52.664;5.074;2023-07-13T08:01:46;24.30;58.50
44111;DHT22;29774;52.664;5.074;2023-07-13T08:04:13;24.40;58.50
44111;DHT22;29774;52.664;5.074;2023-07-13T08:06:39;24.40;58.50
44111;DHT22;29774;52.664;5.074;2023-07-13T08:09:04;24.40;58.60
44111;DHT22;29774;52.664;5.074;2023-07-13T08:11:30;24.30;58.60
44111;DHT22;29774;52.664;5.074;2023-07-13T08:13:56;24.40;58.50
44111;DHT22;29774;52.664;5.074;2023-07-13T08:16:22;24.40;58.60
44111;DHT22;29774;52.664;5.074;2023-07-13T08:18:48;24.40;58.60
44111;DHT22;29774;52.664;5.074;2023-07-13T08:21:14;24.30;59.00
44111;DHT22;29774;52.664;5.074;2023-07-13T08:23:39;24.30;59.10
44111;DHT22;29774;52.664;5.074;2023-07-13T08:26:06;24.40;58.80
44111;DHT22;29774;52.664;5.074;2023-07-13T08:28:32;24.30;58.80
44111;DHT22;29774;52.664;5.074;2023-07-13T08:31:03;24.40;58.80
44111;DHT22;29774;52.664;5.074;2023-07-13T08:33:29;24.40;58.80
44111;DHT22;29774;52.664;5.074;2023-07-13T08:35:54;24.40;58.50
44111;DHT22;29774;52.664;5.074;2023-07-13T08:38:20;24.40;58.70
44111;DHT22;29774;52.664;5.074;2023-07-13T08:40:54;24.40;58.60
44111;DHT22;29774;52.664;5.074;2023-07-13T08:43:27;24.40;58.60
44111;DHT22;29774;52.664;5.074;2023-07-13T08:46:02;24.40;58.70
44111;DHT22;29774;52.664;5.074;2023-07-13T08:48:56;24.50;58.40
44111;DHT22;29774;52.664;5.074;2023-07-13T08:51:38;24.40;58.70
44111;DHT22;29774;52.664;5.074;2023-07-13T08:56:38;24.50;58.50
44111;DHT22;29774;52.664;5.074;2023-07-13T08:59:13;24.40;59.00
44111;DHT22;29774;52.664;5.074;2023-07-13T09:05:27;24.40;59.10
44111;DHT22;29774;52.664;5.074;2023-07-13T09:07:56;24.50;59.30
44111;DHT22;29774;52.664;5.074;2023-07-13T09:10:51;24.50;58.90
44111;DHT22;29774;52.664;5.074;2023-07-13T09:15:47;24.40;59.30
44111;DHT22;29774;52.664;5.074;2023-07-13T09:18:30;24.40;59.00
44111;DHT22;29774;52.664;5.074;2023-07-13T09:21:12;24.40;58.80
44111;DHT22;29774;52.664;5.074;2023-07-13T09:23:39;24.30;59.20
44111;DHT22;29774;52.664;5.074;2023-07-13T09:26:12;24.30;59.30
44111;DHT22;29774;52.664;5.074;2023-07-13T09:28:42;24.40;59.00
44111;DHT22;29774;52.664;5.074;2023-07-13T09:31:19;24.50;58.80
44111;DHT22;29774;52.664;5.074;2023-07-13T09:33:47;24.50;58.70
44111;DHT22;29774;52.664;5.074;2023-07-13T09:36:25;24.60;58.40
44111;DHT22;29774;52.664;5.074;2023-07-13T09:44:15;24.50;58.60
44111;DHT22;29774;52.664;5.074;2023-07-13T09:46:55;24.50;58.70
44111;DHT22;29774;52.664;5.074;2023-07-13T09:49:34;24.50;58.40
44111;DHT22;29774;52.664;5.074;2023-07-13T09:52:06;24.50;58.60
44111;DHT22;29774;52.664;5.074;2023-07-13T09:54:36;24.40;58.80
44111;DHT22;29774;52.664;5.074;2023-07-13T09:57:08;24.50;58.70
44111;DHT22;29774;52.664;5.074;2023-07-13T09:59:40;24.40;59.00
44111;DHT22;29774;52.664;5.074;2023-07-13T10:02:30;24.50;59.00
44111;DHT22;29774;52.664;5.074;2023-07-13T10:05:14;24.50;58.50
44111;DHT22;29774;52.664;5.074;2023-07-13T10:07:45;24.70;58.40
44111;DHT22;29774;52.664;5.074;2023-07-13T10:10:22;24.60;58.50
44111;DHT22;29774;52.664;5.074;2023-07-13T10:12:49;24.50;58.60
44111;DHT22;29774;52.664;5.074;2023-07-13T10:15:18;24.50;58.70
44111;DHT22;29774;52.664;5.074;2023-07-13T10:17:45;24.50;59.00
44111;DHT22;29774;52.664;5.074;2023-07-13T10:20:11;24.50;58.60
44111;DHT22;29774;52.664;5.074;2023-07-13T10:22:59;24.60;58.10
44111;DHT22;29774;52.664;5.074;2023-07-13T10:25:27;24.60;58.80
44111;DHT22;29774;52.664;5.074;2023-07-13T10:28:06;24.60;58.60
44111;DHT22;29774;52.664;5.074;2023-07-13T10:30:39;24.60;58.90
44111;DHT22;29774;52.664;5.074;2023-07-13T10:33:10;24.60;58.40
44111;DHT22;29774;52.664;5.074;2023-07-13T10:35:39;24.70;58.40
44111;DHT22;29774;52.664;5.074;2023-07-13T10:38:11;24.70;58.60
44111;DHT22;29774;52.664;5.074;2023-07-13T10:40:55;24.60;58.80
44111;DHT22;29774;52.664;5.074;2023-07-13T10:43:26;24.60;58.20
44111;DHT22;29774;52.664;5.074;2023-07-13T10:45:53;24.60;58.90
44111;DHT22;29774;52.664;5.074;2023-07-13T10:48:21;24.60;58.70
44111;DHT22;29774;52.664;5.074;2023-07-13T10:50:50;24.60;57.30
44111;DHT22;29774;52.664;5.074;2023-07-13T10:53:22;24.70;58.00
44111;DHT22;29774;52.664;5.074;2023-07-13T10:58:38;24.70;58.60
44111;DHT22;29774;52.664;5.074;2023-07-13T11:01:13;24.60;58.50
44111;DHT22;29774;52.664;5.074;2023-07-13T11:24:56;24.60;58.60
44111;DHT22;29774;52.664;5.074;2023-07-13T11:27:42;24.60;58.30
44111;DHT22;29774;52.664;5.074;2023-07-13T11:38:39;24.80;57.90
44111;DHT22;29774;52.664;5.074;2023-07-13T11:41:30;24.80;57.50
44111;DHT22;29774;52.664;5.074;2023-07-13T11:44:27;25.00;57.10
44111;DHT22;29774;52.664;5.074;2023-07-13T11:46:56;24.90;57.40
44111;DHT22;29774;52.664;5.074;2023-07-13T11:49:26;24.80;57.70
44111;DHT22;29774;52.664;5.074;2023-07-13T11:51:53;24.80;57.50
44111;DHT22;29774;52.664;5.074;2023-07-13T11:54:32;24.80;56.80
44111;DHT22;29774;52.664;5.074;2023-07-13T11:57:01;25.00;57.10
44111;DHT22;29774;52.664;5.074;2023-07-13T11:59:32;25.00;57.00
44111;DHT22;29774;52.664;5.074;2023-07-13T12:01:58;25.00;57.30
44111;DHT22;29774;52.664;5.074;2023-07-13T12:04:29;25.00;57.30
44111;DHT22;29774;52.664;5.074;2023-07-13T12:07:05;24.80;58.10
44111;DHT22;29774;52.664;5.074;2023-07-13T12:09:33;24.80;57.90
44111;DHT22;29774;52.664;5.074;2023-07-13T12:11:59;24.80;57.70
44111;DHT22;29774;52.664;5.074;2023-07-13T12:14:28;24.80;57.70
44111;DHT22;29774;52.664;5.074;2023-07-13T12:16:54;24.90;57.60
44111;DHT22;29774;52.664;5.074;2023-07-13T12:19:25;25.00;57.40
44111;DHT22;29774;52.664;5.074;2023-07-13T12:21:54;25.00;57.40
44111;DHT22;29774;52.664;5.074;2023-07-13T12:24:21;24.90;57.90
44111;DHT22;29774;52.664;5.074;2023-07-13T12:29:18;24.90;57.80
44111;DHT22;29774;52.664;5.074;2023-07-13T12:31:46;25.00;57.60
44111;DHT22;29774;52.664;5.074;2023-07-13T12:36:45;25.10;57.40
44111;DHT22;29774;52.664;5.074;2023-07-13T12:39:15;25.10;57.40
44111;DHT22;29774;52.664;5.074;2023-07-13T12:41:42;25.10;57.40
44111;DHT22;29774;52.664;5.074;2023-07-13T12:44:39;25.00;57.60
44111;DHT22;29774;52.664;5.074;2023-07-13T12:47:09;25.00;57.50
44111;DHT22;29774;52.664;5.074;2023-07-13T12:49:41;25.20;56.80
44111;DHT22;29774;52.664;5.074;2023-07-13T12:52:16;25.20;57.20
44111;DHT22;29774;52.664;5.074;2023-07-13T12:54:42;25.00;57.80
44111;DHT22;29774;52.664;5.074;2023-07-13T12:57:15;25.10;57.10
44111;DHT22;29774;52.664;5.074;2023-07-13T12:59:42;25.20;57.20
44111;DHT22;29774;52.664;5.074;2023-07-13T13:02:30;25.20;57.30
44111;DHT22;29774;52.664;5.074;2023-07-13T13:04:57;25.10;57.60
44111;DHT22;29774;52.664;5.074;2023-07-13T13:07:24;25.10;57.50
44111;DHT22;29774;52.664;5.074;2023-07-13T13:09:50;25.10;57.60
44111;DHT22;29774;52.664;5.074;2023-07-13T13:12:16;25.10;57.20
44111;DHT22;29774;52.664;5.074;2023-07-13T13:14:42;25.30;57.00
44111;DHT22;29774;52.664;5.074;2023-07-13T13:17:23;25.20;57.10
44111;DHT22;29774;52.664;5.074;2023-07-13T13:19:50;25.20;57.70
44111;DHT22;29774;52.664;5.074;2023-07-13T13:22:18;25.10;57.60
44111;DHT22;29774;52.664;5.074;2023-07-13T13:24:44;25.20;57.50
44111;DHT22;29774;52.664;5.074;2023-07-13T13:27:15;25.20;57.70
44111;DHT22;29774;52.664;5.074;2023-07-13T13:29:43;25.10;57.80
44111;DHT22;29774;52.664;5.074;2023-07-13T13:32:12;25.20;57.50
44111;DHT22;29774;52.664;5.074;2023-07-13T13:34:38;25.20;57.70
44111;DHT22;29774;52.664;5.074;2023-07-13T13:37:10;25.20;58.00
44111;DHT22;29774;52.664;5.074;2023-07-13T13:39:41;25.20;57.80
44111;DHT22;29774;52.664;5.074;2023-07-13T13:42:09;25.20;57.70
44111;DHT22;29774;52.664;5.074;2023-07-13T13:44:35;25.20;57.60
44111;DHT22;29774;52.664;5.074;2023-07-13T13:47:01;25.30;57.10
44111;DHT22;29774;52.664;5.074;2023-07-13T13:49:28;25.30;56.20
44111;DHT22;29774;52.664;5.074;2023-07-13T13:51:55;25.30;57.50
44111;DHT22;29774;52.664;5.074;2023-07-13T13:54:22;25.30;57.60
44111;DHT22;29774;52.664;5.074;2023-07-13T13:56:49;25.20;57.70
44111;DHT22;29774;52.664;5.074;2023-07-13T13:59:15;25.20;57.00
44111;DHT22;29774;52.664;5.074;2023-07-13T14:01:46;25.30;57.60
44111;DHT22;29774;52.664;5.074;2023-07-13T14:04:18;25.30;56.60
44111;DHT22;29774;52.664;5.074;2023-07-13T14:06:44;25.30;57.50
44111;DHT22;29774;52.664;5.074;2023-07-13T14:09:12;25.30;57.50
44111;DHT22;29774;52.664;5.074;2023-07-13T14:11:39;25.30;57.80
44111;DHT22;29774;52.664;5.074;2023-07-13T14:14:14;25.30;57.80
44111;DHT22;29774;52.664;5.074;2023-07-13T14:16:41;25.20;57.70
44111;DHT22;29774;52.664;5.074;2023-07-13T14:19:11;25.30;57.60
44111;DHT22;29774;52.664;5.074;2023-07-13T14:21:37;25.30;57.60
44111;DHT22;29774;52.664;5.074;2023-07-13T14:24:03;25.20;58.10
44111;DHT22;29774;52.664;5.074;2023-07-13T14:26:33;25.20;57.90
44111;DHT22;29774;52.664;5.074;2023-07-13T14:29:01;25.20;57.80
44111;DHT22;29774;52.664;5.074;2023-07-13T14:31:27;25.20;58.00
44111;DHT22;29774;52.664;5.074;2023-07-13T14:33:55;25.20;58.00
44111;DHT22;29774;52.664;5.074;2023-07-13T14:36:30;25.20;58.10
44111;DHT22;29774;52.664;5.074;2023-07-13T14:38:57;25.20;58.00
44111;DHT22;29774;52.664;5.074;2023-07-13T14:41:24;25.20;58.10
44111;DHT22;29774;52.664;5.074;2023-07-13T14:43:50;25.10;58.00
44111;DHT22;29774;52.664;5.074;2023-07-13T14:46:27;25.20;57.80
44111;DHT22;29774;52.664;5.074;2023-07-13T14:49:00;25.10;57.70
44111;DHT22;29774;52.664;5.074;2023-07-13T14:51:27;25.20;58.00
44111;DHT22;29774;52.664;5.074;2023-07-13T14:53:52;25.20;57.90
44111;DHT22;29774;52.664;5.074;2023-07-13T14:56:18;25.20;57.70
44111;DHT22;29774;52.664;5.074;2023-07-13T14:58:43;25.20;57.80
44111;DHT22;29774;52.664;5.074;2023-07-13T15:01:12;25.20;57.80
44111;DHT22;29774;52.664;5.074;2023-07-13T15:03:42;25.30;57.60
44111;DHT22;29774;52.664;5.074;2023-07-13T15:06:12;25.30;57.70
44111;DHT22;29774;52.664;5.074;2023-07-13T15:08:39;25.20;57.70
44111;DHT22;29774;52.664;5.074;2023-07-13T15:11:09;25.20;57.90
44111;DHT22;29774;52.664;5.074;2023-07-13T15:13:39;25.20;57.80
44111;DHT22;29774;52.664;5.074;2023-07-13T15:16:17;25.20;57.90
44111;DHT22;29774;52.664;5.074;2023-07-13T15:18:44;25.20;57.60
44111;DHT22;29774;52.664;5.074;2023-07-13T15:21:16;25.20;57.80
44111;DHT22;29774;52.664;5.074;2023-07-13T15:23:43;25.20;57.90
44111;DHT22;29774;52.664;5.074;2023-07-13T15:26:15;25.20;57.70
44111;DHT22;29774;52.664;5.074;2023-07-13T15:28:42;25.30;57.70
44111;DHT22;29774;52.664;5.074;2023-07-13T15:31:19;25.30;57.60
44111;DHT22;29774;52.664;5.074;2023-07-13T15:33:46;25.30;57.70
44111;DHT22;29774;52.664;5.074;2023-07-13T15:36:14;25.30;57.70
44111;DHT22;29774;52.664;5.074;2023-07-13T15:38:39;25.20;57.80
44111;DHT22;29774;52.664;5.074;2023-07-13T15:41:23;25.20;57.80
44111;DHT22;29774;52.664;5.074;2023-07-13T15:43:50;25.20;57.80
44111;DHT22;29774;52.664;5.074;2023-07-13T15:46:21;25.20;57.90
44111;DHT22;29774;52.664;5.074;2023-07-13T15:48:48;25.20;58.10
44111;DHT22;29774;52.664;5.074;2023-07-13T15:51:27;25.20;57.70
44111;DHT22;29774;52.664;5.074;2023-07-13T15:53:55;25.10;58.00
44111;DHT22;29774;52.664;5.074;2023-07-13T15:56:29;25.20;58.00
44111;DHT22;29774;52.664;5.074;2023-07-13T15:58:56;25.20;57.80
44111;DHT22;29774;52.664;5.074;2023-07-13T16:01:23;25.30;57.80
44111;DHT22;29774;52.664;5.074;2023-07-13T16:03:49;25.30;57.80
44111;DHT22;29774;52.664;5.074;2023-07-13T16:06:37;25.20;58.00
44111;DHT22;29774;52.664;5.074;2023-07-13T16:09:05;25.20;58.10
44111;DHT22;29774;52.664;5.074;2023-07-13T16:11:37;25.20;57.90
44111;DHT22;29774;52.664;5.074;2023-07-13T16:14:03;25.20;58.00
44111;DHT22;29774;52.664;5.074;2023-07-13T16:16:31;25.20;58.00
44111;DHT22;29774;52.664;5.074;2023-07-13T16:18:59;25.20;57.90
44111;DHT22;29774;52.664;5.074;2023-07-13T16:21:27;25.20;58.00
44111;DHT22;29774;52.664;5.074;2023-07-13T16:23:54;25.20;58.30
44111;DHT22;29774;52.664;5.074;2023-07-13T16:26:28;25.20;58.20
44111;DHT22;29774;52.664;5.074;2023-07-13T16:28:54;25.20;58.10
44111;DHT22;29774;52.664;5.074;2023-07-13T16:31:32;25.20;57.80